Time;durP1;ratioP1;P1;durP2;ratioP2;P2;SDS_P1;SDS_P2;PMS_P1;PMS_P2;Temp;Humidity;BMP_temperature;BMP_pressure;BME280_temperature;BME280_humidity;BME280_pressure;Samples;Min_cycle;Max_cycle;Signal;HPM_P1;HPM_P2
2024/01/31 00:00:42;;;;;;;29.30;13.70;;;;;;;2.79;97.91;100659.90;109536;1254;72314;-64
2024/01/31 00:03:46;;;;;;;29.10;12.40;;;;;;;2.79;97.77;100659.73;109733;1251;57469;-64
2024/01/31 00:06:33;;;;;;;28.10;13.10;;;;;;;2.79;98.08;100666.40;109630;1251;61012;-66
2024/01/31 00:09:19;;;;;;;25.20;12.20;;;;;;;2.80;98.55;100672.66;109748;1251;73851;-65
2024/01/31 00:12:05;;;;;;;27.00;13.90;;;;;;;2.82;98.69;100670.13;109681;1251;66939;-63
2024/01/31 00:14:52;;;;;;;30.70;14.10;;;;;;;2.86;98.56;100674.19;109679;1251;73455;-66
2024/01/31 00:17:38;;;;;;;27.40;12.80;;;;;;;2.93;98.98;100677.48;109648;1251;57347;-66
2024/01/31 00:20:25;;;;;;;26.70;12.80;;;;;;;2.99;98.70;100676.73;109659;1251;58050;-65
2024/01/31 00:23:11;;;;;;;27.30;12.80;;;;;;;3.04;98.55;100674.92;109758;1251;74146;-64
2024/01/31 00:25:58;;;;;;;24.80;12.60;;;;;;;3.10;98.59;100674.90;109765;1251;68835;-64
2024/01/31 00:28:45;;;;;;;28.60;13.40;;;;;;;3.15;98.55;100673.15;109703;1251;73667;-63
2024/01/31 00:31:33;;;;;;;30.00;14.50;;;;;;;3.19;98.33;100667.55;109656;1251;57344;-63
2024/01/31 00:34:19;;;;;;;31.40;14.10;;;;;;;3.25;98.20;100666.65;109744;1251;60474;-66
2024/01/31 00:37:06;;;;;;;32.70;14.10;;;;;;;3.31;97.97;100668.36;109741;1251;71805;-65
2024/01/31 00:39:53;;;;;;;28.70;13.70;;;;;;;3.36;97.78;100674.27;109633;1251;68874;-64
2024/01/31 00:42:39;;;;;;;29.60;13.70;;;;;;;3.43;97.82;100672.98;109671;1251;73552;-64
2024/01/31 00:45:25;;;;;;;30.70;13.20;;;;;;;3.48;97.94;100675.77;109645;1251;57286;-64
2024/01/31 00:48:12;;;;;;;25.60;11.20;;;;;;;3.50;98.03;100670.95;109679;1251;60173;-64
2024/01/31 00:50:59;;;;;;;25.10;11.80;;;;;;;3.51;97.99;100666.35;109714;1251;72912;-64
2024/01/31 00:53:45;;;;;;;29.00;13.30;;;;;;;3.53;97.98;100667.31;109701;1251;67743;-66
2024/01/31 00:56:32;;;;;;;25.40;13.40;;;;;;;3.57;98.22;100664.54;109630;1251;73847;-65
2024/01/31 00:59:18;;;;;;;33.90;13.50;;;;;;;3.63;98.07;100657.30;109649;1255;58606;-64
2024/01/31 01:02:05;;;;;;;24.90;11.40;;;;;;;3.69;97.99;100657.91;109719;1251;58844;-65
2024/01/31 01:04:52;;;;;;;25.50;11.90;;;;;;;3.75;97.80;100655.05;109706;1250;74052;-64
2024/01/31 01:07:39;;;;;;;26.30;13.10;;;;;;;3.78;98.20;100651.45;109756;1251;66999;-64
2024/01/31 01:10:25;;;;;;;30.30;12.80;;;;;;;3.82;98.45;100648.84;109646;1251;72905;-65
2024/01/31 01:13:12;;;;;;;33.30;13.50;;;;;;;3.84;98.38;100655.92;108966;1251;1002159;-64
2024/01/31 01:15:58;;;;;;;23.70;11.00;;;;;;;3.86;98.83;100656.21;109715;1251;60181;-65
2024/01/31 01:18:44;;;;;;;26.80;12.90;;;;;;;3.88;98.91;100658.38;109703;1251;72768;-64
2024/01/31 01:21:31;;;;;;;32.10;13.70;;;;;;;3.92;98.97;100653.85;109695;1251;68051;-66
2024/01/31 01:24:18;;;;;;;25.90;12.60;;;;;;;3.98;99.39;100643.95;109442;1251;72488;-64
2024/01/31 01:27:04;;;;;;;28.80;13.60;;;;;;;4.07;99.81;100642.20;109692;1251;57978;-65
2024/01/31 01:29:51;;;;;;;27.70;12.60;;;;;;;4.14;99.91;100643.30;109728;1251;60188;-66
2024/01/31 01:32:37;;;;;;;30.00;12.60;;;;;;;4.21;99.99;100640.02;109729;1251;73717;-64
2024/01/31 01:35:24;;;;;;;31.50;12.10;;;;;;;4.24;100.00;100638.14;109694;1251;66437;-65
2024/01/31 01:38:10;;;;;;;25.60;10.80;;;;;;;4.26;100.00;100641.91;109683;1251;72949;-64
2024/01/31 01:40:57;;;;;;;30.90;11.20;;;;;;;4.23;100.00;100635.36;109616;1251;58466;-64
2024/01/31 01:43:43;;;;;;;29.30;12.50;;;;;;;4.18;100.00;100632.41;109663;1251;60157;-63
2024/01/31 01:46:34;;;;;;;32.20;13.50;;;;;;;4.19;100.00;100636.10;108717;1253;1002056;-65
2024/01/31 01:49:20;;;;;;;28.30;12.60;;;;;;;4.17;100.00;100638.43;109716;1251;67873;-64
2024/01/31 01:52:09;;;;;;;34.20;13.30;;;;;;;4.15;100.00;100637.83;109695;1251;73567;-65
2024/01/31 01:54:55;;;;;;;30.00;13.60;;;;;;;4.03;100.00;100626.55;109687;1251;57251;-64
2024/01/31 01:57:43;;;;;;;30.90;13.00;;;;;;;4.06;100.00;100641.52;109692;1251;61119;-65
2024/01/31 02:00:31;;;;;;;27.80;13.40;;;;;;;3.98;100.00;100649.04;109693;1251;72915;-65
2024/01/31 02:03:17;;;;;;;30.80;14.10;;;;;;;3.93;100.00;100652.94;109690;1251;65672;-65
2024/01/31 02:06:04;;;;;;;24.20;11.80;;;;;;;3.88;100.00;100648.41;109624;1251;73764;-65
2024/01/31 02:08:51;;;;;;;31.30;12.50;;;;;;;3.84;100.00;100646.81;109697;1251;57336;-64
2024/01/31 02:11:37;;;;;;;24.90;10.80;;;;;;;3.81;100.00;100644.11;109765;1251;60161;-64
2024/01/31 02:14:24;;;;;;;34.90;13.80;;;;;;;3.79;100.00;100643.34;109730;1251;71686;-64
2024/01/31 02:17:10;;;;;;;34.00;13.30;;;;;;;3.77;100.00;100639.89;109661;1251;68712;-64
2024/01/31 02:19:57;;;;;;;28.00;11.30;;;;;;;3.77;100.00;100636.57;109636;1251;72508;-63
2024/01/31 02:22:47;;;;;;;25.40;12.00;;;;;;;3.73;100.00;100638.98;109513;1251;59083;-64
2024/01/31 02:25:33;;;;;;;28.40;12.10;;;;;;;3.70;100.00;100641.93;109642;1251;61105;-64
2024/01/31 02:28:20;;;;;;;33.40;13.40;;;;;;;3.69;100.00;100639.88;109959;1251;72779;-64
2024/01/31 02:31:06;;;;;;;31.40;13.50;;;;;;;3.71;100.00;100634.15;109801;1251;68896;-63
2024/01/31 02:33:52;;;;;;;31.30;12.00;;;;;;;3.72;100.00;100631.31;109830;1251;72666;-64
2024/01/31 02:36:39;;;;;;;25.50;12.00;;;;;;;3.73;100.00;100637.60;109769;1252;57410;-64
2024/01/31 02:39:25;;;;;;;27.70;12.10;;;;;;;3.73;100.00;100640.21;109767;1251;59026;-65
2024/01/31 02:42:14;;;;;;;29.50;13.60;;;;;;;3.72;100.00;100637.98;109670;1251;73051;-64
2024/01/31 02:45:00;;;;;;;32.60;14.00;;;;;;;3.75;100.00;100635.59;109666;1251;68818;-63
2024/01/31 02:47:47;;;;;;;31.50;13.00;;;;;;;3.80;100.00;100636.80;109611;1252;72468;-64
2024/01/31 02:50:33;;;;;;;31.90;13.60;;;;;;;3.85;100.00;100631.13;109690;1251;58612;-64
2024/01/31 02:53:20;;;;;;;26.60;10.50;;;;;;;3.88;100.00;100630.51;109732;1251;60176;-64
2024/01/31 02:56:09;;;;;;;32.70;14.00;;;;;;;3.89;100.00;100634.30;109481;1251;261218;-65
2024/01/31 02:58:56;;;;;;;30.70;12.80;;;;;;;3.91;100.00;100630.52;109580;1251;67815;-64
2024/01/31 03:01:46;;;;;;;36.40;15.60;;;;;;;3.95;100.00;100630.08;109677;1251;71316;-64
2024/01/31 03:04:32;;;;;;;34.90;14.80;;;;;;;3.99;100.00;100628.64;109235;1253;59737;-65
2024/01/31 03:07:18;;;;;;;30.70;14.10;;;;;;;4.04;100.00;100622.98;109462;1251;60286;-63
2024/01/31 03:10:06;;;;;;;33.40;15.10;;;;;;;4.08;100.00;100621.59;109601;1251;73816;-63
2024/01/31 03:12:52;;;;;;;30.80;13.30;;;;;;;4.02;100.00;100605.34;109569;1251;66390;-64
2024/01/31 03:15:39;;;;;;;30.90;13.20;;;;;;;4.13;100.00;100619.81;109711;1251;74071;-64
2024/01/31 03:18:25;;;;;;;35.20;15.80;;;;;;;4.15;100.00;100619.39;109571;1251;58715;-64
2024/01/31 03:21:11;;;;;;;35.50;16.00;;;;;;;4.17;100.00;100622.84;109706;1251;58898;-64
2024/01/31 03:23:58;;;;;;;33.90;14.90;;;;;;;4.19;100.00;100622.72;109699;1251;74036;-64
2024/01/31 03:26:45;;;;;;;35.80;14.30;;;;;;;4.21;100.00;100624.02;109729;1251;68981;-63
2024/01/31 03:29:32;;;;;;;27.50;13.70;;;;;;;4.22;100.00;100622.08;109739;1251;72396;-65
2024/01/31 03:32:19;;;;;;;28.60;12.60;;;;;;;4.22;100.00;100624.02;109611;1251;57363;-63
2024/01/31 03:35:05;;;;;;;31.10;14.50;;;;;;;4.22;100.00;100621.36;109777;1251;60069;-64
2024/01/31 03:37:52;;;;;;;28.80;14.90;;;;;;;4.24;100.00;100621.80;109709;1251;73889;-65
2024/01/31 03:40:38;;;;;;;31.30;14.80;;;;;;;4.26;100.00;100620.65;109741;1251;68757;-65
2024/01/31 03:43:25;;;;;;;31.30;13.60;;;;;;;4.29;100.00;100616.70;109714;1251;71499;-63
2024/01/31 03:46:12;;;;;;;30.90;15.10;;;;;;;4.30;100.00;100612.41;109687;1251;58074;-64
2024/01/31 03:48:58;;;;;;;33.30;14.40;;;;;;;4.32;100.00;100615.52;109657;1256;60345;-63
2024/01/31 03:51:45;;;;;;;32.80;14.90;;;;;;;4.32;100.00;100615.30;109775;1251;71870;-65
2024/01/31 03:54:31;;;;;;;34.60;15.30;;;;;;;4.32;100.00;100618.64;109640;1251;66668;-65
2024/01/31 03:57:17;;;;;;;26.40;12.20;;;;;;;4.31;100.00;100614.12;109689;1254;71431;-64
2024/01/31 04:00:08;;;;;;;29.80;13.60;;;;;;;4.27;100.00;100614.66;109666;1256;57308;-64
2024/01/31 04:02:55;;;;;;;28.70;14.50;;;;;;;4.23;100.00;100612.02;109187;1257;60200;-64
2024/01/31 04:05:42;;;;;;;29.90;13.30;;;;;;;4.20;100.00;100618.98;109221;1257;72977;-64
2024/01/31 04:08:28;;;;;;;24.70;11.80;;;;;;;4.17;100.00;100617.34;109205;1255;67950;-63
2024/01/31 04:11:14;;;;;;;30.10;14.90;;;;;;;4.12;100.00;100616.52;109218;1257;72964;-64
2024/01/31 04:14:02;;;;;;;34.60;15.30;;;;;;;4.07;100.00;100616.17;109244;1258;57433;-64
2024/01/31 04:16:49;;;;;;;32.50;14.40;;;;;;;3.94;100.00;100606.73;109145;1257;60039;-64
2024/01/31 04:19:36;;;;;;;34.10;16.40;;;;;;;3.99;100.00;100621.81;109271;1257;73004;-64
2024/01/31 04:22:22;;;;;;;35.20;15.20;;;;;;;3.96;100.00;100627.37;109073;1256;69074;-64
2024/01/31 04:25:09;;;;;;;31.40;14.40;;;;;;;3.94;100.00;100620.60;109229;1257;72355;-64
2024/01/31 04:27:56;;;;;;;31.60;13.90;;;;;;;3.91;100.00;100622.11;109148;1257;57427;-64
2024/01/31 04:30:42;;;;;;;31.20;15.50;;;;;;;3.88;100.00;100621.17;109272;1258;61005;-65
2024/01/31 04:33:28;;;;;;;32.90;14.20;;;;;;;3.88;100.00;100622.95;109334;1251;72857;-64
2024/01/31 04:36:15;;;;;;;33.60;16.00;;;;;;;3.89;100.00;100621.16;109686;1251;67318;-64
2024/01/31 04:39:01;;;;;;;25.60;12.00;;;;;;;3.90;100.00;100622.70;109692;1251;72676;-66
2024/01/31 04:41:47;;;;;;;33.30;14.60;;;;;;;3.89;100.00;100626.42;109705;1251;58772;-65
2024/01/31 04:44:35;;;;;;;33.70;14.20;;;;;;;3.87;100.00;100629.47;109707;1251;59966;-65
2024/01/31 04:47:25;;;;;;;29.40;13.40;;;;;;;3.86;100.00;100626.00;109681;1251;72693;-64
2024/01/31 04:50:12;;;;;;;36.70;15.10;;;;;;;3.86;100.00;100619.17;109748;1251;67981;-64
2024/01/31 04:52:58;;;;;;;30.70;14.70;;;;;;;3.88;100.00;100614.89;109530;1251;73371;-64
2024/01/31 04:55:44;;;;;;;32.00;14.20;;;;;;;3.90;100.00;100617.60;109614;1251;57804;-65
2024/01/31 04:58:31;;;;;;;30.10;15.20;;;;;;;3.90;100.00;100619.54;109691;1251;60097;-63
2024/01/31 05:01:17;;;;;;;29.60;13.60;;;;;;;3.91;100.00;100622.14;109553;1250;72811;-65
2024/01/31 05:04:04;;;;;;;32.50;15.30;;;;;;;3.91;100.00;100624.04;109540;1251;67727;-65
2024/01/31 05:06:51;;;;;;;26.30;12.20;;;;;;;3.95;100.00;100620.39;109693;1251;72866;-63
2024/01/31 05:09:38;;;;;;;30.30;14.10;;;;;;;3.97;100.00;100621.86;109735;1251;57935;-65
2024/01/31 05:12:25;;;;;;;33.30;14.10;;;;;;;4.00;100.00;100625.62;109470;1251;60212;-65
2024/01/31 05:15:11;;;;;;;33.30;14.90;;;;;;;4.01;100.00;100627.33;109772;1256;71448;-66
2024/01/31 05:17:59;;;;;;;31.60;14.90;;;;;;;4.04;100.00;100629.64;109881;1251;67746;-64
2024/01/31 05:20:45;;;;;;;31.00;14.80;;;;;;;4.09;100.00;100634.38;109678;1251;72496;-64
2024/01/31 05:23:32;;;;;;;28.00;14.30;;;;;;;4.13;100.00;100629.13;109729;1251;57928;-64
2024/01/31 05:26:18;;;;;;;27.20;12.70;;;;;;;4.14;100.00;100622.92;109698;1251;58724;-63
2024/01/31 05:29:06;;;;;;;34.60;15.60;;;;;;;4.17;100.00;100620.53;109713;1251;72744;-65
2024/01/31 05:31:52;;;;;;;30.90;14.60;;;;;;;4.21;100.00;100626.86;109720;1251;66437;-65
2024/01/31 05:34:42;;;;;;;28.60;13.80;;;;;;;4.25;100.00;100626.70;109550;1251;73502;-64
2024/01/31 05:37:28;;;;;;;31.00;14.30;;;;;;;4.27;100.00;100625.54;109527;1251;58906;-64
2024/01/31 05:40:16;;;;;;;30.20;14.60;;;;;;;4.29;100.00;100620.02;109618;1251;60316;-64
2024/01/31 05:43:03;;;;;;;32.10;15.20;;;;;;;4.31;100.00;100619.23;109594;1251;72808;-64
2024/01/31 05:45:49;;;;;;;30.90;14.70;;;;;;;4.34;100.00;100616.10;109693;1251;67628;-65
2024/01/31 05:48:36;;;;;;;29.90;14.70;;;;;;;4.37;100.00;100620.89;109521;1251;73700;-64
2024/01/31 05:51:23;;;;;;;36.20;16.20;;;;;;;4.39;100.00;100616.94;109709;1251;57754;-64
2024/01/31 05:54:09;;;;;;;31.40;14.20;;;;;;;4.42;100.00;100618.73;109648;1251;58666;-66
2024/01/31 05:56:56;;;;;;;32.20;15.30;;;;;;;4.47;100.00;100622.24;109733;1251;73268;-63
2024/01/31 05:59:43;;;;;;;31.00;14.40;;;;;;;4.51;100.00;100615.55;109581;1251;67897;-64
2024/01/31 06:02:29;;;;;;;31.50;15.20;;;;;;;4.55;100.00;100616.45;109626;1251;72665;-67
2024/01/31 06:05:20;;;;;;;30.80;14.50;;;;;;;4.57;100.00;100618.81;109563;1251;57243;-65
2024/01/31 06:08:07;;;;;;;30.50;14.90;;;;;;;4.59;100.00;100619.08;109584;1251;60160;-64
2024/01/31 06:10:59;;;;;;;32.60;13.80;;;;;;;4.62;100.00;100623.19;109695;1251;71606;-66
2024/01/31 06:13:46;;;;;;;33.00;14.40;;;;;;;4.62;100.00;100623.34;109633;1251;67189;-64
2024/01/31 06:16:33;;;;;;;25.70;13.00;;;;;;;4.64;100.00;100625.54;109484;1251;71212;-69
2024/01/31 06:19:19;;;;;;;30.10;14.60;;;;;;;4.65;100.00;100622.66;109660;1251;58735;-65
2024/01/31 06:22:07;;;;;;;31.90;14.60;;;;;;;4.66;100.00;100622.63;109678;1251;60067;-65
2024/01/31 06:24:53;;;;;;;31.20;14.20;;;;;;;4.70;100.00;100624.41;109639;1251;73804;-65
2024/01/31 06:27:39;;;;;;;29.80;13.30;;;;;;;4.73;100.00;100627.41;109714;1251;68769;-64
2024/01/31 06:30:31;;;;;;;28.70;12.80;;;;;;;4.74;100.00;100633.49;109617;1251;72780;-66
2024/01/31 06:33:19;;;;;;;30.30;14.30;;;;;;;4.75;100.00;100629.96;109673;1251;60532;-65
2024/01/31 06:36:06;;;;;;;28.20;13.30;;;;;;;4.77;100.00;100628.47;109610;1251;61286;-64
2024/01/31 06:38:52;;;;;;;26.30;12.90;;;;;;;4.78;100.00;100626.83;109712;1251;73382;-66
2024/01/31 06:41:39;;;;;;;27.70;13.00;;;;;;;4.81;100.00;100627.45;109626;1251;67905;-65
2024/01/31 06:44:25;;;;;;;28.00;13.50;;;;;;;4.82;100.00;100633.02;109704;1251;72734;-66
2024/01/31 06:47:12;;;;;;;25.90;13.30;;;;;;;4.82;100.00;100637.58;109623;1251;58604;-65
2024/01/31 06:49:58;;;;;;;24.90;12.90;;;;;;;4.83;100.00;100638.96;109676;1251;60365;-69
2024/01/31 06:52:46;;;;;;;24.50;13.10;;;;;;;4.84;100.00;100642.25;109667;1251;72657;-67
2024/01/31 06:55:32;;;;;;;27.40;13.20;;;;;;;4.84;100.00;100645.42;109461;1251;68952;-64
2024/01/31 06:58:19;;;;;;;24.90;12.10;;;;;;;4.85;100.00;100645.20;109643;1251;71280;-64
2024/01/31 07:01:06;;;;;;;27.40;13.10;;;;;;;4.84;100.00;100644.17;109526;1251;57286;-69
2024/01/31 07:03:53;;;;;;;29.40;14.50;;;;;;;4.83;100.00;100644.59;109751;1251;60233;-71
2024/01/31 07:06:39;;;;;;;25.50;13.40;;;;;;;4.83;100.00;100647.37;109387;1251;72781;-72
2024/01/31 07:09:25;;;;;;;27.50;13.60;;;;;;;4.84;100.00;100653.15;109692;1251;66471;-69
2024/01/31 07:12:12;;;;;;;30.50;15.00;;;;;;;4.84;100.00;100651.05;109670;1251;72730;-71
2024/01/31 07:14:58;;;;;;;28.90;13.00;;;;;;;4.84;100.00;100650.88;109580;1251;59462;-72
2024/01/31 07:17:44;;;;;;;26.20;13.00;;;;;;;4.84;100.00;100647.15;109596;1251;61088;-71
2024/01/31 07:20:31;;;;;;;28.50;14.10;;;;;;;4.87;100.00;100644.74;109614;1251;70582;-71
2024/01/31 07:23:17;;;;;;;28.20;13.20;;;;;;;4.88;100.00;100647.14;109770;1251;66695;-72
2024/01/31 07:26:04;;;;;;;24.30;11.60;;;;;;;4.90;100.00;100646.89;109684;1251;71162;-69
2024/01/31 07:28:51;;;;;;;29.10;13.20;;;;;;;4.93;100.00;100650.63;109534;1251;57933;-70
2024/01/31 07:31:37;;;;;;;26.20;13.40;;;;;;;5.06;100.00;100653.41;109539;1253;58753;-69
2024/01/31 07:34:23;;;;;;;27.20;13.80;;;;;;;5.05;100.00;100656.27;109679;1251;73493;-70
2024/01/31 07:37:10;;;;;;;27.50;14.30;;;;;;;5.06;100.00;100655.67;109597;1251;67806;-70
2024/01/31 07:39:57;;;;;;;29.50;14.90;;;;;;;5.07;100.00;100662.83;109545;1251;72612;-70
2024/01/31 07:42:44;;;;;;;24.10;11.70;;;;;;;5.07;100.00;100659.88;109555;1251;57937;-72
2024/01/31 07:45:30;;;;;;;26.30;12.80;;;;;;;5.09;100.00;100660.63;109576;1250;58905;-71
2024/01/31 07:48:16;;;;;;;23.70;12.60;;;;;;;5.11;100.00;100658.42;109484;1251;73748;-72
2024/01/31 07:51:04;;;;;;;24.50;12.90;;;;;;;5.14;100.00;100658.86;109601;1251;67701;-71
2024/01/31 07:53:50;;;;;;;25.10;13.10;;;;;;;5.15;100.00;100659.13;109535;1251;72448;-63
2024/01/31 07:56:37;;;;;;;28.90;13.40;;;;;;;5.15;100.00;100655.63;109611;1251;57479;-68
2024/01/31 07:59:23;;;;;;;23.10;12.50;;;;;;;5.12;100.00;100658.02;109605;1251;60229;-67
2024/01/31 08:02:10;;;;;;;26.70;13.80;;;;;;;5.12;100.00;100659.96;109571;1251;71012;-64
2024/01/31 08:04:56;;;;;;;23.40;12.80;;;;;;;5.12;100.00;100660.16;109633;1251;66486;-65
2024/01/31 08:07:45;;;;;;;25.10;12.20;;;;;;;4.98;100.00;100631.39;109660;1251;71288;-65
2024/01/31 08:10:32;;;;;;;23.90;12.60;;;;;;;5.10;100.00;100650.23;109557;1251;57897;-64
2024/01/31 08:13:18;;;;;;;26.10;12.80;;;;;;;5.09;100.00;100644.41;109505;1251;61223;-67
2024/01/31 08:16:06;;;;;;;24.20;12.60;;;;;;;5.10;100.00;100639.63;109656;1251;74263;-65
2024/01/31 08:18:53;;;;;;;23.10;11.90;;;;;;;5.12;100.00;100638.33;109559;1251;69051;-66
2024/01/31 08:21:39;;;;;;;22.90;11.90;;;;;;;5.15;100.00;100644.17;109603;1251;71712;-66
2024/01/31 08:24:25;;;;;;;20.50;11.70;;;;;;;5.18;100.00;100645.61;109564;1250;58731;-64
2024/01/31 08:27:12;;;;;;;19.30;10.70;;;;;;;5.20;100.00;100645.34;109617;1250;60024;-64
2024/01/31 08:29:58;;;;;;;18.80;10.40;;;;;;;5.21;100.00;100648.48;109699;1250;74087;-66
2024/01/31 08:32:46;;;;;;;21.50;12.00;;;;;;;5.22;100.00;100645.43;109742;1251;67783;-65
2024/01/31 08:35:32;;;;;;;22.30;10.80;;;;;;;5.20;100.00;100643.95;109673;1250;71066;-64
2024/01/31 08:38:19;;;;;;;20.30;9.50;;;;;;;5.23;100.00;100646.44;109497;1251;60476;-65
2024/01/31 08:41:05;;;;;;;18.80;9.60;;;;;;;5.26;100.00;100647.73;109524;1251;60142;-66
2024/01/31 08:43:52;;;;;;;18.00;8.40;;;;;;;5.28;100.00;100650.95;109677;1250;71814;-66
2024/01/31 08:46:38;;;;;;;11.70;5.70;;;;;;;5.32;100.00;100645.87;109575;1251;66524;-67
2024/01/31 08:49:44;;;;;;;9.20;4.00;;;;;;;5.35;100.00;100647.14;109650;1251;72673;-64
2024/01/31 08:52:30;;;;;;;8.60;3.30;;;;;;;5.40;100.00;100652.17;109545;1251;60334;-64
2024/01/31 08:55:18;;;;;;;7.40;3.00;;;;;;;5.43;100.00;100649.02;109552;1252;60216;-64
2024/01/31 08:58:04;;;;;;;7.60;2.70;;;;;;;5.53;100.00;100650.70;109566;1251;72869;-67
2024/01/31 09:00:51;;;;;;;8.60;3.20;;;;;;;5.65;100.00;100651.20;109653;1251;67718;-65
2024/01/31 09:03:38;;;;;;;9.40;3.60;;;;;;;5.71;100.00;100647.04;109624;1251;72492;-63
2024/01/31 09:06:24;;;;;;;8.60;3.40;;;;;;;5.77;100.00;100651.99;109646;1251;57877;-65
2024/01/31 09:09:10;;;;;;;7.70;3.20;;;;;;;5.85;100.00;100648.48;109617;1250;59007;-65
2024/01/31 09:11:57;;;;;;;11.00;4.10;;;;;;;5.88;100.00;100653.61;109518;1251;72667;-65
2024/01/31 09:14:43;;;;;;;7.60;3.20;;;;;;;5.87;100.00;100664.41;109556;1251;68902;-64
2024/01/31 09:17:31;;;;;;;9.00;2.80;;;;;;;5.86;100.00;100656.37;109706;1251;71765;-66
2024/01/31 09:20:18;;;;;;;8.50;2.90;;;;;;;5.90;100.00;100652.64;109649;1251;57632;-65
2024/01/31 09:23:04;;;;;;;8.40;3.10;;;;;;;6.02;100.00;100651.02;109577;1249;59997;-66
2024/01/31 09:25:51;;;;;;;6.40;2.40;;;;;;;6.12;100.00;100650.33;109787;1250;72888;-66
2024/01/31 09:28:39;;;;;;;6.40;2.50;;;;;;;6.16;100.00;100651.20;109639;1251;67655;-64
2024/01/31 09:31:26;;;;;;;6.90;2.30;;;;;;;6.21;100.00;100642.67;109500;1251;71907;-65
2024/01/31 09:34:13;;;;;;;5.60;2.00;;;;;;;6.47;100.00;100645.25;109299;1250;60625;-64
2024/01/31 09:37:00;;;;;;;6.60;2.10;;;;;;;6.77;100.00;100638.20;109502;1251;58836;-67
2024/01/31 09:39:47;;;;;;;6.40;2.10;;;;;;;6.84;100.00;100635.55;109633;1250;72465;-66
2024/01/31 09:42:33;;;;;;;5.70;1.60;;;;;;;6.79;100.00;100615.92;109660;1251;68146;-66
2024/01/31 09:45:21;;;;;;;6.60;1.60;;;;;;;6.74;100.00;100630.27;109599;1250;71215;-66
2024/01/31 09:48:10;;;;;;;6.50;1.80;;;;;;;6.59;100.00;100632.12;109584;1250;58073;-65
2024/01/31 09:50:59;;;;;;;5.60;1.70;;;;;;;6.46;100.00;100631.35;109615;1251;61059;-64
2024/01/31 09:53:50;;;;;;;8.20;2.50;;;;;;;6.36;100.00;100630.63;109600;1250;74213;-64
2024/01/31 09:56:36;;;;;;;6.90;2.20;;;;;;;6.27;100.00;100620.89;109579;1249;66432;-64
2024/01/31 09:59:25;;;;;;;6.60;2.00;;;;;;;6.21;100.00;100616.63;109742;1250;72389;-65
2024/01/31 10:02:14;;;;;;;6.30;1.80;;;;;;;6.19;100.00;100615.83;109639;1250;59512;-65
2024/01/31 10:05:01;;;;;;;5.00;1.60;;;;;;;6.16;100.00;100619.67;109637;1250;58830;-66
2024/01/31 10:07:47;;;;;;;6.00;1.80;;;;;;;6.15;100.00;100625.02;109811;1249;72783;-65
2024/01/31 10:10:34;;;;;;;5.30;1.50;;;;;;;6.07;100.00;100630.16;109644;1251;67758;-67
2024/01/31 10:13:21;;;;;;;5.50;1.70;;;;;;;6.00;100.00;100629.11;109793;1251;73351;-66
2024/01/31 10:16:08;;;;;;;5.10;1.60;;;;;;;5.93;100.00;100629.21;109564;1251;57837;-64
2024/01/31 10:18:54;;;;;;;5.90;1.60;;;;;;;5.85;100.00;100640.19;109693;1251;60111;-64
2024/01/31 10:21:41;;;;;;;5.20;1.90;;;;;;;5.79;100.00;100638.35;109462;1253;73030;-65
2024/01/31 10:24:27;;;;;;;5.70;1.90;;;;;;;5.74;100.00;100640.34;109484;1251;68596;-68
2024/01/31 10:27:14;;;;;;;6.50;2.30;;;;;;;5.69;100.00;100646.07;109657;1251;72577;-64
2024/01/31 10:30:11;;;;;;;5.60;1.60;;;;;;;5.63;100.00;100646.36;109441;1251;59382;-65
2024/01/31 10:32:59;;;;;;;5.10;1.50;;;;;;;5.53;100.00;100652.27;109659;1249;58704;-65
2024/01/31 10:35:47;;;;;;;5.50;1.40;;;;;;;5.45;100.00;100649.98;109528;1251;71560;-65
2024/01/31 10:38:54;;;;;;;4.50;1.40;;;;;;;5.36;100.00;100656.93;109733;1251;67554;-63
2024/01/31 10:41:42;;;;;;;5.10;1.40;;;;;;;5.33;100.00;100652.33;109603;1251;72663;-65
2024/01/31 10:44:31;;;;;;;5.50;1.60;;;;;;;5.34;100.00;100655.61;109651;1251;59855;-65
2024/01/31 10:47:17;;;;;;;5.60;1.50;;;;;;;5.34;100.00;100652.84;109679;1251;61676;-67
2024/01/31 10:50:04;;;;;;;6.10;1.80;;;;;;;5.29;100.00;100652.48;109636;1251;73001;-66
2024/01/31 10:52:53;;;;;;;5.80;1.70;;;;;;;5.26;100.00;100658.48;109653;1251;68816;-66
2024/01/31 10:55:41;;;;;;;5.30;1.50;;;;;;;5.19;100.00;100658.96;109373;1251;72524;-64
2024/01/31 10:58:29;;;;;;;5.20;1.40;;;;;;;5.11;100.00;100661.10;109637;1251;58659;-66
2024/01/31 11:01:15;;;;;;;6.80;1.70;;;;;;;5.02;100.00;100665.71;109619;1251;61302;-66
2024/01/31 11:04:05;;;;;;;6.70;2.00;;;;;;;4.96;100.00;100664.58;109697;1251;72870;-71
2024/01/31 11:06:53;;;;;;;5.60;1.60;;;;;;;4.85;100.00;100661.71;109598;1251;67752;-66
2024/01/31 11:09:41;;;;;;;5.40;1.60;;;;;;;4.78;100.00;100660.42;109536;1250;71437;-64
2024/01/31 11:12:28;;;;;;;5.80;1.80;;;;;;;4.73;100.00;100656.10;109631;1251;58827;-66
2024/01/31 11:15:29;;;;;;;5.90;1.70;;;;;;;4.65;100.00;100655.73;109605;1251;57705;-66
2024/01/31 11:18:15;;;;;;;6.90;2.20;;;;;;;4.60;100.00;100662.46;109581;1251;73766;-66
2024/01/31 11:21:10;;;;;;;6.40;1.90;;;;;;;4.62;100.00;100660.64;109712;1251;66780;-66
2024/01/31 11:23:57;;;;;;;5.60;1.80;;;;;;;4.56;100.00;100658.91;109590;1250;73432;-65
2024/01/31 11:26:43;;;;;;;5.40;1.80;;;;;;;4.49;100.00;100656.06;109521;1251;57959;-66
2024/01/31 11:29:30;;;;;;;6.90;2.10;;;;;;;4.44;100.00;100649.92;109655;1250;60178;-65
2024/01/31 11:32:18;;;;;;;6.90;2.10;;;;;;;4.47;100.00;100653.16;109630;1250;73912;-65
2024/01/31 11:35:05;;;;;;;6.70;1.90;;;;;;;4.50;100.00;100658.09;109683;1250;68771;-64
2024/01/31 11:37:52;;;;;;;6.20;1.90;;;;;;;4.42;100.00;100660.39;109455;1251;71148;-66
2024/01/31 11:40:38;;;;;;;6.70;1.80;;;;;;;4.23;100.00;100657.67;109633;1251;57361;-65
2024/01/31 11:43:25;;;;;;;6.80;2.20;;;;;;;4.17;100.00;100671.47;109700;1251;59263;-64
2024/01/31 11:46:12;;;;;;;8.70;2.20;;;;;;;4.02;100.00;100685.39;109663;1251;71605;-64
2024/01/31 11:48:59;;;;;;;8.30;2.40;;;;;;;3.88;100.00;100679.29;109632;1251;69311;-63
2024/01/31 11:51:45;;;;;;;7.40;2.30;;;;;;;3.82;100.00;100681.14;109661;1250;72779;-64
2024/01/31 11:54:32;;;;;;;8.30;2.40;;;;;;;3.77;100.00;100677.61;109681;1251;57378;-66
2024/01/31 11:57:18;;;;;;;6.00;2.10;;;;;;;3.72;100.00;100669.75;109726;1250;58808;-66
2024/01/31 12:00:06;;;;;;;7.80;2.40;;;;;;;3.63;100.00;100671.67;109620;1251;74082;-65
2024/01/31 12:02:59;;;;;;;7.00;2.30;;;;;;;3.60;100.00;100666.38;109632;1251;67996;-65
2024/01/31 12:05:56;;;;;;;11.70;2.20;;;;;;;3.56;100.00;100663.36;109574;1251;72591;-63
2024/01/31 12:08:47;;;;;;;11.10;2.30;;;;;;;3.52;100.00;100668.41;109538;1251;58755;-67
2024/01/31 12:11:33;;;;;;;8.20;2.20;;;;;;;3.45;100.00;100664.13;109738;1251;59577;-64
2024/01/31 12:14:20;;;;;;;10.40;2.40;;;;;;;3.37;100.00;100659.70;109637;1251;73722;-63
2024/01/31 12:17:24;;;;;;;11.30;3.10;;;;;;;3.29;100.00;100662.63;109681;1251;67566;-66
2024/01/31 12:20:11;;;;;;;10.90;3.10;;;;;;;3.24;100.00;100659.66;109544;1250;71688;-67
2024/01/31 12:22:58;;;;;;;11.00;2.60;;;;;;;3.19;100.00;100661.95;109595;1251;58218;-65
2024/01/31 12:25:44;;;;;;;11.80;3.00;;;;;;;3.15;100.00;100661.91;109580;1251;57799;-66
2024/01/31 12:28:31;;;;;;;13.60;3.50;;;;;;;3.13;100.00;100671.31;109430;1251;72891;-65
2024/01/31 12:31:18;;;;;;;12.40;2.80;;;;;;;3.12;100.00;100672.92;109605;1251;68515;-64
2024/01/31 12:34:04;;;;;;;13.10;3.00;;;;;;;3.04;100.00;100670.22;109656;1251;72663;-65
2024/01/31 12:36:50;;;;;;;13.30;2.60;;;;;;;3.00;100.00;100673.70;109618;1250;57393;-66